PrentiSS Brown — WDE6848 — position and weather

sailwx.info

Track history (hours):
 
Tides and Currents Weather Stations Pressure Air Temp Water Temp Dewpoint Dewpoint Depression Visibility Wind Speed Wind Dir Waves Ship Positions

PrentiSS Brown

Owner: Port City Marine Services Inc, Muskegon, MI. More information available from US FCC via Universal Licensing System and Coast Guard Vessel Documentation Center.

Last reported at 2017-Jan-21 21:23 UTC. Time now 2017-Jan-23 12:52 UTC.
Position N 45°13' W 085°38'.

; draft 7 m.

Type: Other ship. MMSI: 366922280.

Date/timePositionNaut miles runAvg speedWind from/ knotsBaromVisibWave heightAir tempDewpointWater temp
2017-Jan-21 21:23N 45°13' W 085°38'7 8.7
2017-Jan-21 20:33N 45°17' W 085°29'9 8.5
2017-Jan-21 19:33N 45°20' W 085°18'1 1.2
2017-Jan-21 18:33N 45°19' W 085°18'0 0.0
2017-Jan-21 17:33N 45°19' W 085°18'0 0.0
2017-Jan-21 16:33N 45°19' W 085°18'0 0.0
2017-Jan-21 15:33N 45°19' W 085°18'0 0.0
2017-Jan-21 14:33N 45°19' W 085°18'0 0.0
2017-Jan-21 13:33N 45°19' W 085°18'1 1.0
2017-Jan-21 12:33N 45°20' W 085°17'9 8.8
2017-Jan-21 11:33N 45°17' W 085°29'  
2017-Jan-18 05:33N 45°15' W 085°39'9 8.7
2017-Jan-18 04:33N 45°18' W 085°28'7 7.4
2017-Jan-18 03:33N 45°19' W 085°17'0 0.4
2017-Jan-18 02:33N 45°19' W 085°18'0 0.0
2017-Jan-18 01:33N 45°19' W 085°18'0 0.0
2017-Jan-18 00:33N 45°19' W 085°18'0 0.0
2017-Jan-17 23:33N 45°19' W 085°18'0 0.0
2017-Jan-17 22:33N 45°19' W 085°18'0 0.0
2017-Jan-17 21:33N 45°19' W 085°18'3 3.1
2017-Jan-17 20:33N 45°19' W 085°22'9 9.2
2017-Jan-17 19:33N 45°15' W 085°34'  
2017-Jan-14 08:33N 45°13' W 085°39'8 8.4
2017-Jan-14 07:33N 45°17' W 085°28'8 8.1
2017-Jan-14 06:33N 45°20' W 085°18'1 0.8
2017-Jan-14 05:33N 45°19' W 085°18'0 0.0
2017-Jan-14 04:33N 45°19' W 085°18'0 0.0
2017-Jan-14 03:33N 45°19' W 085°18'8 1.9
2017-Jan-13 23:33N 45°18' W 085°28'9 9.2
2017-Jan-13 22:33N 45°15' W 085°41'  
Track history (hours):
 
Tides and Currents Weather Stations Pressure Air Temp Water Temp Dewpoint Dewpoint Depression Visibility Wind Speed Wind Dir Waves Ship Positions

PrentiSS Brown

Owner: Port City Marine Services Inc, Muskegon, MI. More information available from US FCC via Universal Licensing System and Coast Guard Vessel Documentation Center.

Last reported at 2017-Jan-21 21:23 UTC. Time now 2017-Jan-23 12:52 UTC.
Position N 45°13' W 085°38'.

; draft 7 m.

Type: Other ship. MMSI: 366922280.

Date/timePositionNaut miles runAvg speedWind from/ knotsBaromVisibWave heightAir tempDewpointWater temp
2017-Jan-21 21:23N 45°13' W 085°38'7 8.7
2017-Jan-21 20:33N 45°17' W 085°29'9 8.5
2017-Jan-21 19:33N 45°20' W 085°18'1 1.2
2017-Jan-21 18:33N 45°19' W 085°18'0 0.0
2017-Jan-21 17:33N 45°19' W 085°18'0 0.0
2017-Jan-21 16:33N 45°19' W 085°18'0 0.0
2017-Jan-21 15:33N 45°19' W 085°18'0 0.0
2017-Jan-21 14:33N 45°19' W 085°18'0 0.0
2017-Jan-21 13:33N 45°19' W 085°18'1 1.0
2017-Jan-21 12:33N 45°20' W 085°17'9 8.8
2017-Jan-21 11:33N 45°17' W 085°29'  
2017-Jan-18 05:33N 45°15' W 085°39'9 8.7
2017-Jan-18 04:33N 45°18' W 085°28'7 7.4
2017-Jan-18 03:33N 45°19' W 085°17'0 0.4
2017-Jan-18 02:33N 45°19' W 085°18'0 0.0
2017-Jan-18 01:33N 45°19' W 085°18'0 0.0
2017-Jan-18 00:33N 45°19' W 085°18'0 0.0
2017-Jan-17 23:33N 45°19' W 085°18'0 0.0
2017-Jan-17 22:33N 45°19' W 085°18'0 0.0
2017-Jan-17 21:33N 45°19' W 085°18'3 3.1
2017-Jan-17 20:33N 45°19' W 085°22'9 9.2
2017-Jan-17 19:33N 45°15' W 085°34'  
2017-Jan-14 08:33N 45°13' W 085°39'8 8.4
2017-Jan-14 07:33N 45°17' W 085°28'8 8.1
2017-Jan-14 06:33N 45°20' W 085°18'1 0.8
2017-Jan-14 05:33N 45°19' W 085°18'0 0.0
2017-Jan-14 04:33N 45°19' W 085°18'0 0.0
2017-Jan-14 03:33N 45°19' W 085°18'8 1.9
2017-Jan-13 23:33N 45°18' W 085°28'9 9.2
2017-Jan-13 22:33N 45°15' W 085°41'  

Dump ship's entire track history